sensor_id;sensor_type;location;lat;lon;timestamp;pressure;altitude;pressure_sealevel;temperature;humidity
71805;BME280;59654;52.216;5.616;2023-07-31T00:00:08;100687.00;;;13.37;100.00
71805;BME280;59654;52.216;5.616;2023-07-31T00:00:42;100684.84;;;13.26;100.00
71805;BME280;59654;52.216;5.616;2023-07-31T00:01:12;100686.84;;;13.23;100.00
71805;BME280;59654;52.216;5.616;2023-07-31T00:01:43;100680.06;;;13.16;100.00
71805;BME280;59654;52.216;5.616;2023-07-31T00:02:14;100682.91;;;13.13;100.00
71805;BME280;59654;52.216;5.616;2023-07-31T00:02:45;100673.91;;;13.14;100.00
71805;BME280;59654;52.216;5.616;2023-07-31T00:03:16;100680.38;;;13.09;100.00
71805;BME280;59654;52.216;5.616;2023-07-31T00:03:47;100682.09;;;13.10;100.00
71805;BME280;59654;52.216;5.616;2023-07-31T00:04:17;100675.50;;;13.18;100.00
71805;BME280;59654;52.216;5.616;2023-07-31T00:04:48;100681.31;;;13.26;100.00
71805;BME280;59654;52.216;5.616;2023-07-31T00:05:19;100688.09;;;13.33;100.00
71805;BME280;59654;52.216;5.616;2023-07-31T00:05:50;100693.28;;;13.36;100.00
71805;BME280;59654;52.216;5.616;2023-07-31T00:06:21;100682.25;;;13.42;100.00
71805;BME280;59654;52.216;5.616;2023-07-31T00:06:51;100681.13;;;13.46;100.00
71805;BME280;59654;52.216;5.616;2023-07-31T00:07:22;100680.03;;;13.50;100.00
71805;BME280;59654;52.216;5.616;2023-07-31T00:07:53;100688.72;;;13.55;100.00
71805;BME280;59654;52.216;5.616;2023-07-31T00:08:25;100682.22;;;13.59;100.00
71805;BME280;59654;52.216;5.616;2023-07-31T00:08:56;100682.28;;;13.58;100.00
71805;BME280;59654;52.216;5.616;2023-07-31T00:09:27;100681.16;;;13.63;100.00
71805;BME280;59654;52.216;5.616;2023-07-31T00:09:57;100685.69;;;13.61;100.00
71805;BME280;59654;52.216;5.616;2023-07-31T00:10:28;100674.03;;;13.62;100.00
71805;BME280;59654;52.216;5.616;2023-07-31T00:10:59;100679.25;;;13.65;100.00
71805;BME280;59654;52.216;5.616;2023-07-31T00:11:30;100674.59;;;13.69;100.00
71805;BME280;59654;52.216;5.616;2023-07-31T00:12:01;100675.28;;;13.72;100.00
71805;BME280;59654;52.216;5.616;2023-07-31T00:12:32;100670.91;;;13.71;100.00
71805;BME280;59654;52.216;5.616;2023-07-31T00:13:03;100673.38;;;13.74;100.00
71805;BME280;59654;52.216;5.616;2023-07-31T00:13:34;100672.00;;;13.67;100.00
71805;BME280;59654;52.216;5.616;2023-07-31T00:14:04;100668.53;;;13.65;100.00
71805;BME280;59654;52.216;5.616;2023-07-31T00:14:35;100677.38;;;13.67;100.00
71805;BME280;59654;52.216;5.616;2023-07-31T00:15:07;100672.09;;;13.66;100.00
71805;BME280;59654;52.216;5.616;2023-07-31T00:15:38;100671.13;;;13.67;100.00
71805;BME280;59654;52.216;5.616;2023-07-31T00:16:08;100662.16;;;13.68;100.00
71805;BME280;59654;52.216;5.616;2023-07-31T00:16:39;100670.44;;;13.63;100.00
71805;BME280;59654;52.216;5.616;2023-07-31T00:17:10;100663.03;;;13.68;100.00
71805;BME280;59654;52.216;5.616;2023-07-31T00:17:41;100667.59;;;13.66;100.00
71805;BME280;59654;52.216;5.616;2023-07-31T00:18:12;100663.19;;;13.65;100.00
71805;BME280;59654;52.216;5.616;2023-07-31T00:18:43;100665.00;;;13.65;100.00
71805;BME280;59654;52.216;5.616;2023-07-31T00:19:14;100664.91;;;13.66;100.00
71805;BME280;59654;52.216;5.616;2023-07-31T00:19:44;100666.47;;;13.70;100.00
71805;BME280;59654;52.216;5.616;2023-07-31T00:20:16;100663.53;;;13.75;100.00
71805;BME280;59654;52.216;5.616;2023-07-31T00:20:47;100667.25;;;13.72;100.00
71805;BME280;59654;52.216;5.616;2023-07-31T00:21:18;100663.63;;;13.73;100.00
71805;BME280;59654;52.216;5.616;2023-07-31T00:21:49;100668.72;;;13.78;100.00
71805;BME280;59654;52.216;5.616;2023-07-31T00:22:19;100673.06;;;13.81;100.00
71805;BME280;59654;52.216;5.616;2023-07-31T00:22:50;100663.91;;;13.85;100.00
71805;BME280;59654;52.216;5.616;2023-07-31T00:23:21;100670.81;;;13.89;100.00
71805;BME280;59654;52.216;5.616;2023-07-31T00:23:51;100665.38;;;13.90;100.00
71805;BME280;59654;52.216;5.616;2023-07-31T00:24:22;100670.66;;;13.92;100.00
71805;BME280;59654;52.216;5.616;2023-07-31T00:24:53;100664.25;;;13.94;100.00
71805;BME280;59654;52.216;5.616;2023-07-31T00:25:24;100667.31;;;13.88;100.00
71805;BME280;59654;52.216;5.616;2023-07-31T00:25:55;100664.19;;;13.96;100.00
71805;BME280;59654;52.216;5.616;2023-07-31T00:26:25;100665.28;;;13.92;100.00
71805;BME280;59654;52.216;5.616;2023-07-31T00:26:56;100661.81;;;13.90;100.00
71805;BME280;59654;52.216;5.616;2023-07-31T00:27:27;100657.69;;;13.84;100.00
71805;BME280;59654;52.216;5.616;2023-07-31T00:27:58;100661.41;;;13.82;100.00
71805;BME280;59654;52.216;5.616;2023-07-31T00:28:30;100658.78;;;13.80;100.00
71805;BME280;59654;52.216;5.616;2023-07-31T00:29:01;100664.94;;;13.82;100.00
71805;BME280;59654;52.216;5.616;2023-07-31T00:29:32;100667.69;;;13.81;100.00
71805;BME280;59654;52.216;5.616;2023-07-31T00:30:03;100662.34;;;13.81;100.00
71805;BME280;59654;52.216;5.616;2023-07-31T00:30:34;100663.06;;;13.84;100.00
71805;BME280;59654;52.216;5.616;2023-07-31T00:31:05;100662.78;;;13.89;100.00
71805;BME280;59654;52.216;5.616;2023-07-31T00:31:36;100660.72;;;13.94;100.00
71805;BME280;59654;52.216;5.616;2023-07-31T00:32:07;100659.69;;;13.96;100.00
71805;BME280;59654;52.216;5.616;2023-07-31T00:32:38;100657.00;;;13.96;100.00
71805;BME280;59654;52.216;5.616;2023-07-31T00:33:08;100655.91;;;14.00;100.00
71805;BME280;59654;52.216;5.616;2023-07-31T00:33:41;100664.97;;;13.98;100.00
71805;BME280;59654;52.216;5.616;2023-07-31T00:34:12;100661.50;;;13.96;100.00
71805;BME280;59654;52.216;5.616;2023-07-31T00:34:43;100662.38;;;13.96;100.00
71805;BME280;59654;52.216;5.616;2023-07-31T00:35:14;100652.44;;;13.98;100.00
71805;BME280;59654;52.216;5.616;2023-07-31T00:35:45;100656.59;;;14.04;100.00
71805;BME280;59654;52.216;5.616;2023-07-31T00:36:15;100661.75;;;14.07;100.00
71805;BME280;59654;52.216;5.616;2023-07-31T00:36:48;100655.81;;;14.02;100.00
71805;BME280;59654;52.216;5.616;2023-07-31T00:37:20;100660.81;;;14.08;100.00
71805;BME280;59654;52.216;5.616;2023-07-31T00:37:51;100657.97;;;14.11;100.00
71805;BME280;59654;52.216;5.616;2023-07-31T00:38:22;100659.69;;;14.12;100.00
71805;BME280;59654;52.216;5.616;2023-07-31T00:38:53;100662.28;;;14.13;100.00
71805;BME280;59654;52.216;5.616;2023-07-31T00:39:24;100664.81;;;14.17;100.00
71805;BME280;59654;52.216;5.616;2023-07-31T00:39:54;100657.88;;;14.12;100.00
71805;BME280;59654;52.216;5.616;2023-07-31T00:40:25;100660.56;;;14.12;100.00
71805;BME280;59654;52.216;5.616;2023-07-31T00:40:56;100656.47;;;14.05;100.00
71805;BME280;59654;52.216;5.616;2023-07-31T00:41:27;100654.00;;;14.02;100.00
71805;BME280;59654;52.216;5.616;2023-07-31T00:41:58;100655.28;;;13.95;100.00
71805;BME280;59654;52.216;5.616;2023-07-31T00:42:28;100655.97;;;13.99;100.00
71805;BME280;59654;52.216;5.616;2023-07-31T00:42:59;100643.84;;;13.92;100.00
71805;BME280;59654;52.216;5.616;2023-07-31T00:43:30;100638.94;;;13.84;100.00
71805;BME280;59654;52.216;5.616;2023-07-31T00:44:01;100636.75;;;13.91;100.00
71805;BME280;59654;52.216;5.616;2023-07-31T00:44:32;100639.09;;;13.97;100.00
71805;BME280;59654;52.216;5.616;2023-07-31T00:45:05;100642.50;;;14.00;100.00
71805;BME280;59654;52.216;5.616;2023-07-31T00:45:36;100648.56;;;14.04;100.00
71805;BME280;59654;52.216;5.616;2023-07-31T00:46:07;100647.50;;;14.06;100.00
71805;BME280;59654;52.216;5.616;2023-07-31T00:46:39;100649.91;;;14.11;100.00
71805;BME280;59654;52.216;5.616;2023-07-31T00:47:10;100643.44;;;14.15;100.00
71805;BME280;59654;52.216;5.616;2023-07-31T00:47:40;100638.88;;;14.17;100.00
71805;BME280;59654;52.216;5.616;2023-07-31T00:48:11;100651.31;;;14.18;100.00
71805;BME280;59654;52.216;5.616;2023-07-31T00:48:42;100642.41;;;14.18;100.00
71805;BME280;59654;52.216;5.616;2023-07-31T00:49:13;100646.63;;;14.22;100.00
71805;BME280;59654;52.216;5.616;2023-07-31T00:49:45;100644.72;;;14.24;100.00
71805;BME280;59654;52.216;5.616;2023-07-31T00:50:17;100641.00;;;14.26;100.00
71805;BME280;59654;52.216;5.616;2023-07-31T00:50:48;100644.72;;;14.24;100.00
71805;BME280;59654;52.216;5.616;2023-07-31T00:51:19;100652.59;;;14.27;100.00
71805;BME280;59654;52.216;5.616;2023-07-31T00:51:50;100641.97;;;14.25;100.00
71805;BME280;59654;52.216;5.616;2023-07-31T00:52:22;100653.38;;;14.29;100.00
71805;BME280;59654;52.216;5.616;2023-07-31T00:52:53;100648.81;;;14.31;100.00
71805;BME280;59654;52.216;5.616;2023-07-31T00:53:24;100645.94;;;14.34;100.00
71805;BME280;59654;52.216;5.616;2023-07-31T00:53:55;100655.66;;;14.36;100.00
71805;BME280;59654;52.216;5.616;2023-07-31T00:54:26;100647.41;;;14.39;100.00
71805;BME280;59654;52.216;5.616;2023-07-31T00:54:57;100649.22;;;14.39;100.00
71805;BME280;59654;52.216;5.616;2023-07-31T00:55:30;100651.97;;;14.37;100.00
71805;BME280;59654;52.216;5.616;2023-07-31T00:56:01;100650.16;;;14.38;100.00
71805;BME280;59654;52.216;5.616;2023-07-31T00:56:32;100644.91;;;14.36;100.00
71805;BME280;59654;52.216;5.616;2023-07-31T00:57:05;100639.56;;;14.36;100.00
71805;BME280;59654;52.216;5.616;2023-07-31T00:57:41;100646.44;;;14.40;100.00
71805;BME280;59654;52.216;5.616;2023-07-31T00:58:12;100638.41;;;14.40;100.00
71805;BME280;59654;52.216;5.616;2023-07-31T00:58:43;100635.63;;;14.42;100.00
71805;BME280;59654;52.216;5.616;2023-07-31T00:59:14;100633.72;;;14.44;100.00
71805;BME280;59654;52.216;5.616;2023-07-31T00:59:45;100632.88;;;14.43;100.00
71805;BME280;59654;52.216;5.616;2023-07-31T01:00:17;100637.28;;;14.44;100.00
71805;BME280;59654;52.216;5.616;2023-07-31T01:00:48;100634.44;;;14.47;100.00
71805;BME280;59654;52.216;5.616;2023-07-31T01:01:20;100632.53;;;14.49;100.00
71805;BME280;59654;52.216;5.616;2023-07-31T01:01:52;100627.94;;;14.52;100.00
71805;BME280;59654;52.216;5.616;2023-07-31T01:02:23;100634.06;;;14.54;100.00
71805;BME280;59654;52.216;5.616;2023-07-31T01:02:54;100642.78;;;14.57;100.00
71805;BME280;59654;52.216;5.616;2023-07-31T01:03:26;100639.16;;;14.58;100.00
71805;BME280;59654;52.216;5.616;2023-07-31T01:03:56;100639.16;;;14.58;100.00
71805;BME280;59654;52.216;5.616;2023-07-31T01:04:28;100652.31;;;14.63;100.00
71805;BME280;59654;52.216;5.616;2023-07-31T01:05:00;100632.63;;;14.64;100.00
71805;BME280;59654;52.216;5.616;2023-07-31T01:05:52;100632.44;;;14.67;100.00
71805;BME280;59654;52.216;5.616;2023-07-31T01:08:48;100631.09;;;14.74;100.00
71805;BME280;59654;52.216;5.616;2023-07-31T01:10:47;100633.44;;;14.80;100.00
71805;BME280;59654;52.216;5.616;2023-07-31T01:11:27;100629.81;;;14.81;100.00
71805;BME280;59654;52.216;5.616;2023-07-31T01:12:04;100642.28;;;14.82;100.00
71805;BME280;59654;52.216;5.616;2023-07-31T01:12:38;100637.06;;;14.79;100.00
71805;BME280;59654;52.216;5.616;2023-07-31T01:13:10;100638.63;;;14.83;100.00
71805;BME280;59654;52.216;5.616;2023-07-31T01:13:44;100639.50;;;14.83;100.00
71805;BME280;59654;52.216;5.616;2023-07-31T01:14:15;100637.59;;;14.86;100.00
71805;BME280;59654;52.216;5.616;2023-07-31T01:15:06;100642.84;;;14.87;100.00
71805;BME280;59654;52.216;5.616;2023-07-31T01:15:41;100640.16;;;14.87;100.00
71805;BME280;59654;52.216;5.616;2023-07-31T01:16:12;100631.94;;;14.90;100.00
71805;BME280;59654;52.216;5.616;2023-07-31T01:16:43;100639.97;;;14.90;100.00
71805;BME280;59654;52.216;5.616;2023-07-31T01:17:13;100634.63;;;14.90;100.00
71805;BME280;59654;52.216;5.616;2023-07-31T01:17:44;100630.97;;;14.91;100.00
71805;BME280;59654;52.216;5.616;2023-07-31T01:18:15;100632.72;;;14.92;100.00
71805;BME280;59654;52.216;5.616;2023-07-31T01:18:46;100630.88;;;14.93;100.00
71805;BME280;59654;52.216;5.616;2023-07-31T01:19:22;100628.38;;;14.90;100.00
71805;BME280;59654;52.216;5.616;2023-07-31T01:20:00;100632.88;;;14.89;100.00
71805;BME280;59654;52.216;5.616;2023-07-31T01:20:36;100639.81;;;14.93;100.00
71805;BME280;59654;52.216;5.616;2023-07-31T01:22:39;100625.59;;;14.91;100.00
71805;BME280;59654;52.216;5.616;2023-07-31T01:23:41;100628.19;;;14.93;100.00
71805;BME280;59654;52.216;5.616;2023-07-31T01:24:30;100627.50;;;14.89;100.00
71805;BME280;59654;52.216;5.616;2023-07-31T01:26:26;100623.41;;;14.83;100.00
71805;BME280;59654;52.216;5.616;2023-07-31T01:27:29;100638.66;;;14.67;100.00
71805;BME280;59654;52.216;5.616;2023-07-31T01:28:20;100635.28;;;14.64;100.00
71805;BME280;59654;52.216;5.616;2023-07-31T01:29:26;100632.63;;;14.64;100.00
71805;BME280;59654;52.216;5.616;2023-07-31T01:30:13;100621.41;;;14.56;100.00
71805;BME280;59654;52.216;5.616;2023-07-31T01:30:48;100630.88;;;14.47;100.00
71805;BME280;59654;52.216;5.616;2023-07-31T01:31:24;100622.91;;;14.45;100.00
71805;BME280;59654;52.216;5.616;2023-07-31T01:31:57;100636.25;;;14.47;100.00
71805;BME280;59654;52.216;5.616;2023-07-31T01:32:34;100629.75;;;14.51;100.00
71805;BME280;59654;52.216;5.616;2023-07-31T01:33:05;100635.22;;;14.49;100.00
71805;BME280;59654;52.216;5.616;2023-07-31T01:33:39;100624.31;;;14.53;100.00
71805;BME280;59654;52.216;5.616;2023-07-31T01:34:13;100628.09;;;14.48;100.00
71805;BME280;59654;52.216;5.616;2023-07-31T01:34:46;100626.47;;;14.46;100.00
71805;BME280;59654;52.216;5.616;2023-07-31T01:35:17;100621.19;;;14.44;100.00
71805;BME280;59654;52.216;5.616;2023-07-31T01:35:49;100623.88;;;14.44;100.00
71805;BME280;59654;52.216;5.616;2023-07-31T01:36:21;100622.22;;;14.42;100.00
71805;BME280;59654;52.216;5.616;2023-07-31T01:36:52;100621.00;;;14.47;100.00
71805;BME280;59654;52.216;5.616;2023-07-31T01:37:28;100630.41;;;14.55;100.00
71805;BME280;59654;52.216;5.616;2023-07-31T01:38:00;100624.00;;;14.57;100.00
71805;BME280;59654;52.216;5.616;2023-07-31T01:38:31;100625.81;;;14.57;100.00
71805;BME280;59654;52.216;5.616;2023-07-31T01:39:02;100627.66;;;14.56;100.00
71805;BME280;59654;52.216;5.616;2023-07-31T01:39:35;100622.19;;;14.58;100.00
71805;BME280;59654;52.216;5.616;2023-07-31T01:40:06;100623.94;;;14.59;100.00
71805;BME280;59654;52.216;5.616;2023-07-31T01:40:41;100627.38;;;14.61;100.00
71805;BME280;59654;52.216;5.616;2023-07-31T01:41:13;100621.16;;;14.60;100.00
71805;BME280;59654;52.216;5.616;2023-07-31T01:41:47;100625.47;;;14.63;100.00
71805;BME280;59654;52.216;5.616;2023-07-31T01:42:18;100623.75;;;14.62;100.00
71805;BME280;59654;52.216;5.616;2023-07-31T01:42:48;100622.75;;;14.64;100.00
71805;BME280;59654;52.216;5.616;2023-07-31T01:43:20;100627.06;;;14.67;100.00
71805;BME280;59654;52.216;5.616;2023-07-31T01:43:51;100621.94;;;14.62;100.00
71805;BME280;59654;52.216;5.616;2023-07-31T01:44:22;100631.66;;;14.65;100.00
71805;BME280;59654;52.216;5.616;2023-07-31T01:44:53;100623.53;;;14.66;100.00
71805;BME280;59654;52.216;5.616;2023-07-31T01:45:24;100621.78;;;14.65;100.00
71805;BME280;59654;52.216;5.616;2023-07-31T01:45:55;100622.56;;;14.67;100.00
71805;BME280;59654;52.216;5.616;2023-07-31T01:46:25;100620.75;;;14.68;100.00
71805;BME280;59654;52.216;5.616;2023-07-31T01:46:56;100628.59;;;14.71;100.00
71805;BME280;59654;52.216;5.616;2023-07-31T01:47:29;100613.19;;;14.74;100.00
71805;BME280;59654;52.216;5.616;2023-07-31T01:48:00;100624.78;;;14.75;100.00
71805;BME280;59654;52.216;5.616;2023-07-31T01:48:30;100619.41;;;14.75;100.00
71805;BME280;59654;52.216;5.616;2023-07-31T01:49:06;100617.69;;;14.74;100.00
71805;BME280;59654;52.216;5.616;2023-07-31T01:49:37;100610.31;;;14.77;100.00
71805;BME280;59654;52.216;5.616;2023-07-31T01:50:08;100613.00;;;14.77;100.00
71805;BME280;59654;52.216;5.616;2023-07-31T01:50:40;100610.25;;;14.79;100.00
71805;BME280;59654;52.216;5.616;2023-07-31T01:51:12;100617.50;;;14.77;100.00
71805;BME280;59654;52.216;5.616;2023-07-31T01:51:43;100616.66;;;14.76;100.00
71805;BME280;59654;52.216;5.616;2023-07-31T01:52:13;100616.81;;;14.73;100.00
71805;BME280;59654;52.216;5.616;2023-07-31T01:52:44;100609.53;;;14.75;100.00
71805;BME280;59654;52.216;5.616;2023-07-31T01:53:15;100616.91;;;14.72;100.00
71805;BME280;59654;52.216;5.616;2023-07-31T01:53:46;100610.69;;;14.71;100.00
71805;BME280;59654;52.216;5.616;2023-07-31T01:54:17;100613.84;;;14.64;100.00
71805;BME280;59654;52.216;5.616;2023-07-31T01:54:48;100612.88;;;14.65;100.00
71805;BME280;59654;52.216;5.616;2023-07-31T01:55:19;100613.84;;;14.64;100.00
71805;BME280;59654;52.216;5.616;2023-07-31T01:55:49;100614.75;;;14.63;100.00
71805;BME280;59654;52.216;5.616;2023-07-31T01:56:20;100612.00;;;14.64;100.00
71805;BME280;59654;52.216;5.616;2023-07-31T01:56:51;100618.06;;;14.68;100.00
71805;BME280;59654;52.216;5.616;2023-07-31T01:57:22;100605.31;;;14.71;100.00
71805;BME280;59654;52.216;5.616;2023-07-31T01:57:53;100609.81;;;14.71;100.00
71805;BME280;59654;52.216;5.616;2023-07-31T01:58:23;100623.16;;;14.72;100.00
71805;BME280;59654;52.216;5.616;2023-07-31T01:58:54;100607.81;;;14.74;100.00
71805;BME280;59654;52.216;5.616;2023-07-31T01:59:25;100616.25;;;14.68;100.00
71805;BME280;59654;52.216;5.616;2023-07-31T01:59:56;100612.50;;;14.71;100.00
71805;BME280;59654;52.216;5.616;2023-07-31T02:00:27;100607.13;;;14.71;100.00
71805;BME280;59654;52.216;5.616;2023-07-31T02:00:57;100609.25;;;14.66;100.00
71805;BME280;59654;52.216;5.616;2023-07-31T02:01:28;100606.47;;;14.67;100.00
71805;BME280;59654;52.216;5.616;2023-07-31T02:01:59;100615.94;;;14.73;100.00
71805;BME280;59654;52.216;5.616;2023-07-31T02:02:30;100605.13;;;14.74;100.00
71805;BME280;59654;52.216;5.616;2023-07-31T02:03:02;100606.09;;;14.73;100.00
71805;BME280;59654;52.216;5.616;2023-07-31T02:03:33;100602.34;;;14.76;100.00
71805;BME280;59654;52.216;5.616;2023-07-31T02:04:03;100605.91;;;14.76;100.00
71805;BME280;59654;52.216;5.616;2023-07-31T02:04:35;100593.63;;;14.72;100.00
71805;BME280;59654;52.216;5.616;2023-07-31T02:05:07;100591.97;;;14.70;100.00
71805;BME280;59654;52.216;5.616;2023-07-31T02:05:48;100605.59;;;14.67;100.00
71805;BME280;59654;52.216;5.616;2023-07-31T02:06:19;100606.56;;;14.66;100.00
71805;BME280;59654;52.216;5.616;2023-07-31T02:06:50;100600.31;;;14.65;100.00
71805;BME280;59654;52.216;5.616;2023-07-31T02:07:21;100601.97;;;14.68;100.00
71805;BME280;59654;52.216;5.616;2023-07-31T02:07:52;100601.09;;;14.67;100.00
71805;BME280;59654;52.216;5.616;2023-07-31T02:08:22;100605.50;;;14.68;100.00
71805;BME280;59654;52.216;5.616;2023-07-31T02:08:53;100610.75;;;14.70;100.00
71805;BME280;59654;52.216;5.616;2023-07-31T02:09:24;100597.16;;;14.73;100.00
71805;BME280;59654;52.216;5.616;2023-07-31T02:09:55;100592.75;;;14.72;100.00
71805;BME280;59654;52.216;5.616;2023-07-31T02:10:26;100601.59;;;14.74;100.00
71805;BME280;59654;52.216;5.616;2023-07-31T02:10:56;100598.13;;;14.72;100.00
71805;BME280;59654;52.216;5.616;2023-07-31T02:11:27;100595.53;;;14.70;100.00
71805;BME280;59654;52.216;5.616;2023-07-31T02:11:58;100594.47;;;14.73;100.00
71805;BME280;59654;52.216;5.616;2023-07-31T02:12:29;100586.34;;;14.74;100.00
71805;BME280;59654;52.216;5.616;2023-07-31T02:13:04;100589.91;;;14.75;100.00
71805;BME280;59654;52.216;5.616;2023-07-31T02:13:36;100593.44;;;14.75;100.00
71805;BME280;59654;52.216;5.616;2023-07-31T02:14:07;100585.47;;;14.74;100.00
71805;BME280;59654;52.216;5.616;2023-07-31T02:14:37;100591.63;;;14.76;100.00
71805;BME280;59654;52.216;5.616;2023-07-31T02:15:08;100591.34;;;14.80;100.00
71805;BME280;59654;52.216;5.616;2023-07-31T02:15:40;100584.94;;;14.83;100.00
71805;BME280;59654;52.216;5.616;2023-07-31T02:16:11;100591.44;;;14.79;100.00
71805;BME280;59654;52.216;5.616;2023-07-31T02:16:41;100583.03;;;14.85;100.00
71805;BME280;59654;52.216;5.616;2023-07-31T02:17:13;100589.44;;;14.82;100.00
71805;BME280;59654;52.216;5.616;2023-07-31T02:17:44;100584.72;;;14.86;100.00
71805;BME280;59654;52.216;5.616;2023-07-31T02:18:14;100584.66;;;14.88;100.00
71805;BME280;59654;52.216;5.616;2023-07-31T02:18:45;100581.69;;;14.92;100.00
71805;BME280;59654;52.216;5.616;2023-07-31T02:19:17;100586.09;;;14.93;100.00
71805;BME280;59654;52.216;5.616;2023-07-31T02:19:48;100577.09;;;14.94;100.00
71805;BME280;59654;52.216;5.616;2023-07-31T02:20:19;100584.03;;;14.98;100.00
71805;BME280;59654;52.216;5.616;2023-07-31T02:20:50;100576.75;;;15.00;100.00
71805;BME280;59654;52.216;5.616;2023-07-31T02:21:21;100577.59;;;15.01;100.00
71805;BME280;59654;52.216;5.616;2023-07-31T02:21:52;100576.66;;;15.02;100.00
71805;BME280;59654;52.216;5.616;2023-07-31T02:22:23;100581.03;;;15.03;100.00
71805;BME280;59654;52.216;5.616;2023-07-31T02:22:54;100582.66;;;15.05;100.00
71805;BME280;59654;52.216;5.616;2023-07-31T02:23:25;100575.28;;;15.09;100.00
71805;BME280;59654;52.216;5.616;2023-07-31T02:23:55;100578.94;;;15.08;100.00
71805;BME280;59654;52.216;5.616;2023-07-31T02:24:26;100572.53;;;15.10;100.00
71805;BME280;59654;52.216;5.616;2023-07-31T02:24:57;100574.25;;;15.11;100.00
71805;BME280;59654;52.216;5.616;2023-07-31T02:25:27;100573.38;;;15.11;100.00
71805;BME280;59654;52.216;5.616;2023-07-31T02:25:58;100569.84;;;15.10;100.00
71805;BME280;59654;52.216;5.616;2023-07-31T02:26:29;100569.56;;;15.15;100.00
71805;BME280;59654;52.216;5.616;2023-07-31T02:27:00;100571.28;;;15.16;100.00
71805;BME280;59654;52.216;5.616;2023-07-31T02:27:31;100568.38;;;15.19;100.00
71805;BME280;59654;52.216;5.616;2023-07-31T02:28:02;100568.28;;;15.21;100.00
71805;BME280;59654;52.216;5.616;2023-07-31T02:28:33;100563.00;;;15.19;100.00
71805;BME280;59654;52.216;5.616;2023-07-31T02:29:05;100562.84;;;15.22;100.00
71805;BME280;59654;52.216;5.616;2023-07-31T02:29:35;100568.38;;;15.19;100.00
71805;BME280;59654;52.216;5.616;2023-07-31T02:30:07;100568.97;;;15.24;100.00
71805;BME280;59654;52.216;5.616;2023-07-31T02:30:38;100566.28;;;15.24;100.00
71805;BME280;59654;52.216;5.616;2023-07-31T02:31:09;100569.84;;;15.25;100.00
71805;BME280;59654;52.216;5.616;2023-07-31T02:31:40;100567.84;;;15.28;100.00
71805;BME280;59654;52.216;5.616;2023-07-31T02:32:10;100566.19;;;15.26;100.00
71805;BME280;59654;52.216;5.616;2023-07-31T02:32:41;100569.75;;;15.26;100.00
71805;BME280;59654;52.216;5.616;2023-07-31T02:33:12;100576.75;;;15.29;100.00
71805;BME280;59654;52.216;5.616;2023-07-31T02:33:43;100580.31;;;15.29;100.00
71805;BME280;59654;52.216;5.616;2023-07-31T02:34:14;100572.53;;;15.25;100.00
71805;BME280;59654;52.216;5.616;2023-07-31T02:34:46;100571.66;;;15.24;100.00
71805;BME280;59654;52.216;5.616;2023-07-31T02:35:17;100573.22;;;15.28;100.00
71805;BME280;59654;52.216;5.616;2023-07-31T02:35:48;100574.06;;;15.29;100.00
71805;BME280;59654;52.216;5.616;2023-07-31T02:36:19;100569.47;;;15.31;100.00
71805;BME280;59654;52.216;5.616;2023-07-31T02:36:50;100568.78;;;15.27;100.00
71805;BME280;59654;52.216;5.616;2023-07-31T02:37:23;100574.06;;;15.29;100.00
71805;BME280;59654;52.216;5.616;2023-07-31T02:37:54;100573.13;;;15.30;100.00
71805;BME280;59654;52.216;5.616;2023-07-31T02:38:25;100568.88;;;15.26;100.00
71805;BME280;59654;52.216;5.616;2023-07-31T02:38:55;100568.88;;;15.26;100.00
71805;BME280;59654;52.216;5.616;2023-07-31T02:39:26;100573.41;;;15.25;100.00
71805;BME280;59654;52.216;5.616;2023-07-31T02:39:57;100572.44;;;15.26;100.00
71805;BME280;59654;52.216;5.616;2023-07-31T02:40:28;100574.06;;;15.29;100.00
71805;BME280;59654;52.216;5.616;2023-07-31T02:40:59;100569.47;;;15.31;100.00
71805;BME280;59654;52.216;5.616;2023-07-31T02:41:31;100573.13;;;15.30;100.00
71805;BME280;59654;52.216;5.616;2023-07-31T02:42:02;100573.31;;;15.27;100.00
71805;BME280;59654;52.216;5.616;2023-07-31T02:42:33;100571.38;;;15.29;100.00
71805;BME280;59654;52.216;5.616;2023-07-31T02:43:04;100572.53;;;15.25;100.00
71805;BME280;59654;52.216;5.616;2023-07-31T02:43:35;100563.34;;;15.29;100.00
71805;BME280;59654;52.216;5.616;2023-07-31T02:44:06;100566.28;;;15.24;100.00
71805;BME280;59654;52.216;5.616;2023-07-31T02:44:37;100567.84;;;15.28;100.00
71805;BME280;59654;52.216;5.616;2023-07-31T02:45:08;100564.09;;;15.31;100.00
71805;BME280;59654;52.216;5.616;2023-07-31T02:45:39;100571.97;;;15.34;100.00
71805;BME280;59654;52.216;5.616;2023-07-31T02:46:10;100566.47;;;15.35;100.00
71805;BME280;59654;52.216;5.616;2023-07-31T02:46:41;100566.59;;;15.34;100.00
71805;BME280;59654;52.216;5.616;2023-07-31T02:47:12;100574.44;;;15.37;100.00
71805;BME280;59654;52.216;5.616;2023-07-31T02:47:42;100569.66;;;15.42;100.00
71805;BME280;59654;52.216;5.616;2023-07-31T02:48:13;100568.22;;;15.36;100.00
71805;BME280;59654;52.216;5.616;2023-07-31T02:48:44;100570.34;;;15.31;100.00
71805;BME280;59654;52.216;5.616;2023-07-31T02:49:15;100573.88;;;15.32;100.00
71805;BME280;59654;52.216;5.616;2023-07-31T02:49:46;100569.47;;;15.31;100.00
71805;BME280;59654;52.216;5.616;2023-07-31T02:50:17;100569.84;;;15.25;100.00
71805;BME280;59654;52.216;5.616;2023-07-31T02:50:48;100573.31;;;15.27;100.00
71805;BME280;59654;52.216;5.616;2023-07-31T02:51:19;100568.97;;;15.24;100.00
71805;BME280;59654;52.216;5.616;2023-07-31T02:51:51;100566.00;;;15.29;100.00